createdAt,value
2018-05-02T00:00:49.237Z,48.80
2018-05-02T00:03:15.187Z,48.76
2018-05-02T00:05:41.208Z,48.76
2018-05-02T00:08:07.228Z,48.76
2018-05-02T00:10:33.172Z,48.71
2018-05-02T00:12:59.155Z,48.67
2018-05-02T00:15:25.135Z,48.74
2018-05-02T00:17:51.115Z,48.66
2018-05-02T00:20:17.095Z,48.66
2018-05-02T00:22:43.078Z,48.61
2018-05-02T00:25:09.085Z,48.56
2018-05-02T00:27:35.064Z,48.44
2018-05-02T00:30:01.013Z,48.50
2018-05-02T00:32:27.031Z,48.49
2018-05-02T00:34:52.978Z,48.45
2018-05-02T00:37:18.969Z,48.42
2018-05-02T00:39:44.951Z,48.33
2018-05-02T00:42:10.957Z,48.33
2018-05-02T00:44:36.937Z,48.35
2018-05-02T00:47:02.953Z,48.32
2018-05-02T00:49:28.931Z,48.33
2018-05-02T00:51:54.880Z,48.36
2018-05-02T00:54:20.857Z,48.28
2018-05-02T00:56:46.877Z,48.34
2018-05-02T00:59:12.953Z,48.32
2018-05-02T01:01:38.908Z,48.29
2018-05-02T01:04:04.912Z,48.26
2018-05-02T01:06:30.894Z,48.28
2018-05-02T01:08:56.840Z,48.27
2018-05-02T01:11:22.854Z,48.23
2018-05-02T01:13:48.802Z,48.22
2018-05-02T01:16:14.778Z,48.20
2018-05-02T01:18:40.782Z,48.09
2018-05-02T01:21:06.731Z,48.07
2018-05-02T01:23:32.717Z,48.04
2018-05-02T01:25:58.701Z,48.03
2018-05-02T01:28:24.707Z,47.96
2018-05-02T01:30:50.691Z,47.96
2018-05-02T01:33:16.673Z,47.94
2018-05-02T01:35:42.767Z,47.90
2018-05-02T01:38:08.783Z,47.86
2018-05-02T01:40:34.730Z,47.95
2018-05-02T01:43:00.714Z,47.92
2018-05-02T01:45:26.695Z,47.94
2018-05-02T01:47:52.673Z,47.95
2018-05-02T01:50:18.675Z,47.89
2018-05-02T01:52:44.654Z,47.88
2018-05-02T01:55:10.608Z,47.96
2018-05-02T01:57:36.581Z,47.83
2018-05-02T02:00:02.558Z,47.83
2018-05-02T02:02:28.581Z,47.81
2018-05-02T02:04:54.595Z,47.75
2018-05-02T02:07:20.543Z,47.75
2018-05-02T02:09:46.528Z,47.74
2018-05-02T02:12:12.507Z,47.70
2018-05-02T02:14:38.483Z,47.64
2018-05-02T02:17:04.469Z,47.65
2018-05-02T02:19:30.468Z,47.56
2018-05-02T02:21:56.467Z,47.58
2018-05-02T02:24:22.448Z,47.55
2018-05-02T02:26:48.426Z,47.54
2018-05-02T02:29:14.431Z,47.47
2018-05-02T02:31:40.417Z,47.49
2018-05-02T02:34:06.579Z,47.47
2018-05-02T02:36:32.402Z,47.53
2018-05-02T02:38:58.371Z,47.68
2018-05-02T02:41:24.348Z,47.61
2018-05-02T02:43:50.324Z,47.58
2018-05-02T02:46:16.347Z,47.60
2018-05-02T02:48:42.330Z,47.57
2018-05-02T02:51:08.317Z,47.55
2018-05-02T02:53:34.298Z,47.52
2018-05-02T02:56:00.280Z,47.48
2018-05-02T02:58:26.302Z,47.44
2018-05-02T03:00:52.357Z,47.43
2018-05-02T03:03:18.302Z,47.39
2018-05-02T03:05:44.320Z,47.50
2018-05-02T03:08:10.272Z,47.40
2018-05-02T03:10:36.245Z,47.29
2018-05-02T03:13:02.263Z,47.29
2018-05-02T03:15:28.275Z,47.18
2018-05-02T03:17:54.217Z,47.21
2018-05-02T03:20:20.238Z,47.22
2018-05-02T03:22:46.193Z,47.19
2018-05-02T03:25:12.173Z,47.15
2018-05-02T03:27:38.182Z,47.21
2018-05-02T03:30:04.145Z,47.12
2018-05-02T03:32:30.133Z,47.29
2018-05-02T03:34:56.117Z,47.31
2018-05-02T03:37:22.108Z,47.23
2018-05-02T03:39:48.100Z,47.12
2018-05-02T03:42:14.083Z,47.24
2018-05-02T03:44:40.063Z,47.08
2018-05-02T03:47:06.068Z,47.05
2018-05-02T03:49:32.103Z,47.03
2018-05-02T03:51:58.076Z,47.11
2018-05-02T03:54:24.055Z,47.10
2018-05-02T03:56:50.035Z,47.08
2018-05-02T03:59:15.971Z,46.97
2018-05-02T04:01:41.954Z,47.23
2018-05-02T04:04:07.936Z,47.00
2018-05-02T04:06:33.939Z,46.74
2018-05-02T04:08:59.951Z,46.52
2018-05-02T04:11:25.899Z,46.27
2018-05-02T04:13:51.909Z,46.16
2018-05-02T04:16:17.865Z,46.12
2018-05-02T04:18:43.972Z,45.93
2018-05-02T04:21:09.979Z,45.82
2018-05-02T04:23:35.960Z,46.14
2018-05-02T04:26:01.955Z,46.46
2018-05-02T04:28:27.985Z,46.79
2018-05-02T04:30:54.004Z,46.73
2018-05-02T04:33:20.020Z,46.34
2018-05-02T04:35:46.001Z,46.94
2018-05-02T04:38:11.955Z,46.89
2018-05-02T04:40:37.964Z,46.75
2018-05-02T04:43:03.948Z,47.29
2018-05-02T04:45:29.955Z,47.23
2018-05-02T04:47:55.940Z,47.29
2018-05-02T04:50:21.955Z,47.24
2018-05-02T04:52:50.125Z,47.71
2018-05-02T04:55:16.208Z,47.24
2018-05-02T04:57:42.101Z,46.56
2018-05-02T05:00:08.086Z,47.42
2018-05-02T05:02:34.100Z,46.62
2018-05-02T05:05:00.111Z,46.64
2018-05-02T05:07:26.126Z,46.50
2018-05-02T05:09:52.097Z,46.51
2018-05-02T05:12:18.171Z,46.49
2018-05-02T05:14:44.100Z,46.46
2018-05-02T05:17:10.083Z,46.43
2018-05-02T05:19:36.055Z,46.62
2018-05-02T05:22:02.041Z,46.75
2018-05-02T05:24:28.102Z,46.50
2018-05-02T05:26:54.088Z,46.47
2018-05-02T05:29:20.072Z,46.02
2018-05-02T05:31:46.058Z,46.06
2018-05-02T05:34:12.068Z,46.39
2018-05-02T05:36:38.053Z,46.48
2018-05-02T05:39:04.029Z,46.18
2018-05-02T05:41:30.010Z,46.34
2018-05-02T05:43:56.005Z,46.45
2018-05-02T05:46:22.036Z,47.04
2018-05-02T05:48:48.026Z,47.05
2018-05-02T05:51:13.976Z,46.72
2018-05-02T05:53:40.061Z,46.27
2018-05-02T05:56:06.048Z,47.12
2018-05-02T05:58:32.105Z,48.49
2018-05-02T06:00:58.085Z,47.50
2018-05-02T06:03:24.100Z,47.24
2018-05-02T06:05:50.051Z,47.35
2018-05-02T06:08:16.068Z,48.47
2018-05-02T06:10:42.011Z,48.48
2018-05-02T06:13:08.024Z,47.25
2018-05-02T06:15:34.000Z,46.79
2018-05-02T06:17:59.947Z,47.69
2018-05-02T06:20:25.973Z,46.70
2018-05-02T06:22:51.983Z,45.95
2018-05-02T06:25:17.952Z,45.93
2018-05-02T06:27:43.942Z,46.09
2018-05-02T06:30:09.925Z,46.21
2018-05-02T06:32:35.913Z,46.30
2018-05-02T06:35:01.902Z,45.96
2018-05-02T06:37:27.890Z,46.10
2018-05-02T06:39:53.876Z,46.22
2018-05-02T06:42:19.860Z,46.37
2018-05-02T06:44:45.838Z,46.38
2018-05-02T06:47:11.842Z,46.48
2018-05-02T06:49:37.853Z,46.54
2018-05-02T06:52:03.837Z,46.67
2018-05-02T06:54:29.825Z,46.65
2018-05-02T06:56:55.880Z,46.28
2018-05-02T06:59:21.905Z,45.79
2018-05-02T07:01:47.871Z,45.42
2018-05-02T07:04:13.867Z,45.59
2018-05-02T07:06:39.875Z,45.65
2018-05-02T07:09:05.848Z,45.75
2018-05-02T07:11:31.870Z,45.44
2018-05-02T07:13:57.859Z,45.88
2018-05-02T07:16:23.959Z,44.58
2018-05-02T07:18:50.002Z,44.88
2018-05-02T07:21:15.966Z,45.60
2018-05-02T07:23:41.979Z,48.38
2018-05-02T07:26:07.958Z,48.07
2018-05-02T07:28:33.939Z,47.79
2018-05-02T07:30:59.918Z,46.63
2018-05-02T07:33:25.864Z,45.60
2018-05-02T07:35:51.889Z,45.01
2018-05-02T07:38:17.865Z,44.89
2018-05-02T07:40:43.820Z,44.34
2018-05-02T07:43:09.808Z,43.89
2018-05-02T07:45:35.782Z,43.42
2018-05-02T07:48:01.794Z,43.47
2018-05-02T07:50:27.753Z,43.70
2018-05-02T07:52:53.755Z,43.81
2018-05-02T07:55:19.775Z,43.74
2018-05-02T07:57:45.787Z,43.04
2018-05-02T08:00:11.796Z,42.52
2018-05-02T08:02:37.773Z,42.89
2018-05-02T08:05:03.755Z,43.02
2018-05-02T08:07:29.731Z,43.06
2018-05-02T08:09:55.702Z,43.25
2018-05-02T08:15:05.645Z,43.24
2018-05-02T08:17:31.608Z,43.52
2018-05-02T08:19:57.611Z,43.56
2018-05-02T08:22:23.595Z,43.80
2018-05-02T08:24:49.575Z,44.13
2018-05-02T08:27:15.552Z,44.43
2018-05-02T08:29:41.541Z,44.39
2018-05-02T08:32:07.513Z,44.57
2018-05-02T08:34:33.498Z,44.67
2018-05-02T08:36:59.485Z,44.72
2018-05-02T08:39:25.517Z,44.71
2018-05-02T08:41:51.499Z,44.67
2018-05-02T08:44:17.558Z,44.79
2018-05-02T08:46:43.535Z,44.75
2018-05-02T08:49:09.484Z,44.62
2018-05-02T08:51:35.585Z,44.60
2018-05-02T08:54:01.566Z,44.64
2018-05-02T08:56:27.575Z,44.74
2018-05-02T08:58:53.523Z,44.64
2018-05-02T09:01:19.513Z,44.66
2018-05-02T09:03:45.646Z,44.82
2018-05-02T09:06:11.537Z,44.87
2018-05-02T09:08:37.583Z,44.71
2018-05-02T09:11:03.498Z,44.81
2018-05-02T09:13:29.480Z,44.92
2018-05-02T09:15:55.460Z,44.94
2018-05-02T09:18:21.531Z,44.95
2018-05-02T09:20:47.524Z,45.07
2018-05-02T09:23:13.511Z,45.03
2018-05-02T09:25:39.526Z,45.02
2018-05-02T09:28:05.496Z,45.13
2018-05-02T09:30:31.539Z,45.09
2018-05-02T09:32:57.506Z,45.15
2018-05-02T09:35:23.487Z,45.20
2018-05-02T09:37:49.512Z,44.95
2018-05-02T09:40:15.522Z,44.97
2018-05-02T09:42:41.496Z,45.28
2018-05-02T09:45:07.503Z,45.16
2018-05-02T09:47:33.448Z,45.05
2018-05-02T09:49:59.445Z,45.08
2018-05-02T09:52:25.420Z,44.97
2018-05-02T09:54:51.402Z,45.04
2018-05-02T09:57:17.384Z,45.04
2018-05-02T09:59:43.367Z,45.11
2018-05-02T10:02:09.360Z,45.00
2018-05-02T10:04:35.359Z,45.01
2018-05-02T10:07:01.327Z,45.08
2018-05-02T10:09:27.337Z,45.10
2018-05-02T10:11:53.310Z,45.12
2018-05-02T10:14:19.267Z,45.14
2018-05-02T10:16:45.270Z,45.11
2018-05-02T10:19:11.263Z,45.37
2018-05-02T10:21:37.316Z,45.20
2018-05-02T10:24:03.374Z,45.15
2018-05-02T10:26:29.351Z,45.41
2018-05-02T10:28:55.398Z,45.19
2018-05-02T10:31:21.349Z,45.17
2018-05-02T10:33:47.369Z,45.24
2018-05-02T10:36:13.356Z,45.21
2018-05-02T10:38:39.335Z,45.24
2018-05-02T10:41:05.315Z,45.15
2018-05-02T10:43:31.338Z,45.14
2018-05-02T10:45:57.320Z,45.16
2018-05-02T10:48:23.418Z,45.30
2018-05-02T10:50:49.383Z,45.23
2018-05-02T10:53:15.333Z,45.34
2018-05-02T10:55:41.343Z,45.22
2018-05-02T10:58:07.300Z,45.23
2018-05-02T11:00:33.320Z,45.27
2018-05-02T11:02:59.284Z,45.33
2018-05-02T11:05:25.261Z,45.26
2018-05-02T11:07:51.247Z,45.31
2018-05-02T11:10:17.240Z,45.33
2018-05-02T11:12:43.229Z,45.31
2018-05-02T11:15:09.254Z,45.32
2018-05-02T11:17:35.245Z,45.32
2018-05-02T11:20:01.225Z,45.29
2018-05-02T11:22:27.185Z,45.33
2018-05-02T11:24:53.160Z,45.40
2018-05-02T11:27:19.306Z,45.34
2018-05-02T11:29:45.208Z,45.46
2018-05-02T11:32:11.193Z,45.49
2018-05-02T11:34:37.197Z,45.47
2018-05-02T11:37:03.171Z,45.44
2018-05-02T11:39:29.168Z,45.38
2018-05-02T11:41:55.154Z,45.37
2018-05-02T11:44:21.172Z,45.22
2018-05-02T11:46:47.198Z,45.19
2018-05-02T11:49:13.224Z,45.31
2018-05-02T11:51:39.198Z,45.13
2018-05-02T11:54:05.213Z,45.08
2018-05-02T11:56:31.194Z,45.05
2018-05-02T11:58:57.205Z,45.00
2018-05-02T12:01:23.163Z,44.94
2018-05-02T12:03:49.194Z,45.08
2018-05-02T12:06:15.191Z,45.01
2018-05-02T12:08:41.181Z,45.35
2018-05-02T12:11:07.168Z,45.51
2018-05-02T12:13:33.191Z,45.60
2018-05-02T12:15:59.187Z,45.75
2018-05-02T12:18:25.189Z,45.94
2018-05-02T12:20:51.175Z,45.87
2018-05-02T12:23:17.191Z,45.92
2018-05-02T12:25:43.203Z,46.05
2018-05-02T12:28:09.191Z,46.10
2018-05-02T12:30:35.139Z,46.29
2018-05-02T12:33:01.124Z,46.34
2018-05-02T12:35:27.118Z,46.36
2018-05-02T12:37:53.113Z,46.52
2018-05-02T12:40:19.179Z,46.62
2018-05-02T12:42:45.156Z,46.68
2018-05-02T12:45:11.144Z,46.86
2018-05-02T12:47:37.124Z,46.89
2018-05-02T12:50:03.098Z,46.72
2018-05-02T12:52:29.079Z,46.46
2018-05-02T12:54:55.060Z,46.24
2018-05-02T12:57:21.084Z,46.05
2018-05-02T12:59:47.069Z,45.71
2018-05-02T13:02:13.086Z,45.48
2018-05-02T13:04:39.064Z,45.55
2018-05-02T13:07:05.045Z,45.47
2018-05-02T13:09:31.070Z,45.60
2018-05-02T13:11:57.054Z,45.51
2018-05-02T13:14:23.108Z,45.50
2018-05-02T13:16:49.065Z,45.47
2018-05-02T13:19:15.086Z,45.61
2018-05-02T13:21:41.040Z,45.28
2018-05-02T13:24:07.048Z,45.50
2018-05-02T13:26:33.045Z,45.40
2018-05-02T13:28:59.021Z,45.14
2018-05-02T13:31:25.032Z,45.02
2018-05-02T13:33:51.015Z,45.20
2018-05-02T13:36:16.964Z,44.97
2018-05-02T13:38:42.968Z,45.19
2018-05-02T13:41:08.961Z,45.16
2018-05-02T13:43:34.979Z,45.12
2018-05-02T13:46:00.931Z,45.25
2018-05-02T13:48:26.921Z,45.21
2018-05-02T13:50:52.913Z,45.24
2018-05-02T13:53:18.953Z,45.32
2018-05-02T13:55:44.976Z,45.69
2018-05-02T13:58:10.956Z,45.99
2018-05-02T14:00:36.986Z,46.14
2018-05-02T14:03:03.002Z,46.40
2018-05-02T14:05:28.980Z,46.49
2018-05-02T14:07:54.930Z,46.35
2018-05-02T14:10:20.954Z,46.47
2018-05-02T14:12:46.938Z,46.19
2018-05-02T14:15:12.913Z,46.25
2018-05-02T14:17:38.927Z,46.26
2018-05-02T14:20:04.870Z,46.36
2018-05-02T14:22:30.886Z,46.34
2018-05-02T14:24:56.836Z,46.29
2018-05-02T14:27:22.819Z,46.39
2018-05-02T14:29:48.806Z,46.35
2018-05-02T14:32:14.815Z,46.37
2018-05-02T14:34:40.768Z,46.42
2018-05-02T14:37:06.779Z,46.39
2018-05-02T14:39:32.723Z,46.37
2018-05-02T14:41:58.726Z,46.40
2018-05-02T14:44:24.724Z,46.41
2018-05-02T14:46:50.732Z,46.39
2018-05-02T14:49:16.721Z,46.40
2018-05-02T14:51:42.730Z,46.41
2018-05-02T14:54:08.715Z,46.36
2018-05-02T14:56:34.752Z,46.34
2018-05-02T14:59:00.699Z,46.38
2018-05-02T15:01:26.721Z,46.38
2018-05-02T15:03:52.709Z,46.39
2018-05-02T15:06:18.724Z,46.40
2018-05-02T15:08:44.717Z,46.38
2018-05-02T15:11:10.724Z,46.41
2018-05-02T15:13:36.731Z,46.34
2018-05-02T15:16:02.735Z,46.29
2018-05-02T15:18:28.947Z,46.39
2018-05-02T15:20:54.938Z,46.37
2018-05-02T15:23:20.944Z,46.43
2018-05-02T15:25:46.932Z,46.40
2018-05-02T15:28:19.986Z,46.46
2018-05-02T15:30:46.059Z,46.45
2018-05-02T15:33:11.996Z,46.52
2018-05-02T15:35:37.974Z,46.54
2018-05-02T15:38:03.952Z,46.54
2018-05-02T15:40:29.974Z,46.53
2018-05-02T15:42:55.922Z,46.49
2018-05-02T15:45:21.933Z,46.51
2018-05-02T15:47:47.914Z,46.50
2018-05-02T15:50:13.888Z,46.46
2018-05-02T15:52:39.876Z,46.47
2018-05-02T15:55:05.866Z,46.50
2018-05-02T15:57:31.845Z,46.47
2018-05-02T15:59:57.884Z,46.44
2018-05-02T16:02:23.890Z,46.48
2018-05-02T16:04:49.847Z,46.53
2018-05-02T16:07:15.867Z,46.42
2018-05-02T16:09:41.846Z,46.50
2018-05-02T16:12:07.792Z,46.45
2018-05-02T16:14:33.777Z,46.46
2018-05-02T16:16:59.836Z,46.51
2018-05-02T16:19:25.818Z,46.48
2018-05-02T16:21:51.776Z,46.47
2018-05-02T16:24:17.801Z,46.47
2018-05-02T16:26:43.772Z,46.45
2018-05-02T16:29:09.721Z,46.44
2018-05-02T16:31:35.726Z,46.45
2018-05-02T16:34:01.696Z,46.42
2018-05-02T16:36:27.687Z,46.39
2018-05-02T16:38:53.699Z,46.37
2018-05-02T16:41:19.652Z,46.32
2018-05-02T16:43:45.653Z,46.32
2018-05-02T16:46:11.632Z,46.31
2018-05-02T16:48:37.640Z,46.27
2018-05-02T16:51:03.620Z,46.26
2018-05-02T16:53:29.613Z,46.24
2018-05-02T16:55:55.621Z,46.22
2018-05-02T16:58:21.570Z,46.21
2018-05-02T17:00:47.561Z,46.12
2018-05-02T17:03:13.544Z,46.04
2018-05-02T17:05:39.550Z,45.98
2018-05-02T17:08:05.502Z,46.01
2018-05-02T17:10:31.484Z,45.94
2018-05-02T17:12:57.472Z,45.90
2018-05-02T17:15:23.448Z,45.92
2018-05-02T17:17:49.424Z,45.98
2018-05-02T17:20:15.440Z,45.91
2018-05-02T17:22:41.387Z,45.75
2018-05-02T17:25:07.404Z,45.70
2018-05-02T17:27:33.634Z,45.58
2018-05-02T17:29:59.693Z,45.64
2018-05-02T17:32:25.640Z,45.63
2018-05-02T17:34:51.626Z,45.14
2018-05-02T17:37:17.627Z,45.60
2018-05-02T17:39:43.610Z,45.58
2018-05-02T17:42:09.610Z,45.48
2018-05-02T17:44:35.624Z,45.24
2018-05-02T17:47:01.610Z,45.33
2018-05-02T17:49:27.573Z,45.38
2018-05-02T17:51:53.567Z,45.42
2018-05-02T17:54:19.617Z,45.17
2018-05-02T17:56:45.566Z,45.38
2018-05-02T17:59:11.544Z,44.97
2018-05-02T18:01:37.537Z,45.39
2018-05-02T18:04:03.519Z,45.33
2018-05-02T18:06:29.528Z,45.15
2018-05-02T18:08:55.501Z,45.27
2018-05-02T18:11:21.516Z,45.25
2018-05-02T18:13:47.493Z,45.35
2018-05-02T18:16:13.531Z,45.36
2018-05-02T18:18:39.558Z,45.49
2018-05-02T18:21:05.546Z,45.46
2018-05-02T18:23:31.609Z,45.24
2018-05-02T18:25:57.595Z,45.19
2018-05-02T18:28:23.543Z,45.69
2018-05-02T18:30:49.555Z,45.65
2018-05-02T18:33:15.533Z,45.50
2018-05-02T18:35:41.562Z,45.74
2018-05-02T18:38:07.518Z,45.83
2018-05-02T18:40:33.535Z,45.97
2018-05-02T18:42:59.478Z,46.24
2018-05-02T18:45:25.466Z,46.21
2018-05-02T18:47:51.480Z,46.29
2018-05-02T18:50:17.460Z,46.46
2018-05-02T18:52:43.436Z,46.46
2018-05-02T18:55:09.451Z,46.46
2018-05-02T18:57:35.434Z,46.47
2018-05-02T19:00:01.417Z,46.41
2018-05-02T19:02:27.367Z,46.82
2018-05-02T19:04:53.342Z,47.92
2018-05-02T19:07:19.364Z,48.21
2018-05-02T19:09:45.305Z,48.01
2018-05-02T19:12:11.368Z,48.11
2018-05-02T19:14:37.266Z,48.13
2018-05-02T19:17:03.296Z,48.25
2018-05-02T19:19:29.272Z,49.55
2018-05-02T19:21:55.250Z,49.21
2018-05-02T19:24:21.235Z,49.85
2018-05-02T19:26:47.256Z,49.31
2018-05-02T19:29:13.217Z,49.12
2018-05-02T19:31:39.264Z,49.42
2018-05-02T19:34:05.219Z,50.50
2018-05-02T19:36:31.204Z,50.22
2018-05-02T19:38:57.190Z,50.42
2018-05-02T19:41:23.205Z,49.37
2018-05-02T19:43:49.166Z,50.30
2018-05-02T19:46:15.176Z,49.65
2018-05-02T19:48:41.134Z,49.44
2018-05-02T19:51:07.160Z,49.50
2018-05-02T19:53:33.181Z,50.00
2018-05-02T19:55:59.133Z,49.26
2018-05-02T19:58:25.116Z,49.28
2018-05-02T20:00:51.132Z,49.80
2018-05-02T20:03:17.102Z,49.08
2018-05-02T20:05:43.158Z,49.13
2018-05-02T20:08:09.125Z,48.97
2018-05-02T20:10:35.065Z,48.98
2018-05-02T20:13:01.042Z,48.88
2018-05-02T20:15:27.025Z,49.10
2018-05-02T20:17:53.043Z,48.73
2018-05-02T20:20:19.004Z,48.78
2018-05-02T20:22:44.980Z,48.64
2018-05-02T20:25:10.979Z,48.62
2018-05-02T20:27:36.987Z,48.57
2018-05-02T20:30:02.993Z,48.49
2018-05-02T20:32:28.969Z,48.46
2018-05-02T20:34:54.916Z,48.40
2018-05-02T20:37:20.903Z,48.40
2018-05-02T20:39:46.912Z,48.32
2018-05-02T20:42:12.873Z,48.18
2018-05-02T20:44:38.846Z,48.32
2018-05-02T20:47:04.860Z,48.29
2018-05-02T20:49:30.852Z,48.05
2018-05-02T20:51:56.822Z,47.99
2018-05-02T20:54:22.835Z,47.97
2018-05-02T20:56:48.814Z,47.92
2018-05-02T20:59:14.754Z,47.99
2018-05-02T21:01:40.743Z,47.93
2018-05-02T21:04:06.719Z,47.82
2018-05-02T21:06:32.715Z,47.77
2018-05-02T21:08:58.707Z,47.71
2018-05-02T21:11:24.728Z,47.74
2018-05-02T21:13:50.738Z,47.80
2018-05-02T21:16:16.741Z,47.59
2018-05-02T21:18:42.756Z,47.54
2018-05-02T21:21:08.747Z,47.51
2018-05-02T21:23:34.701Z,47.46
2018-05-02T21:26:00.685Z,47.42
2018-05-02T21:28:26.661Z,47.40
2018-05-02T21:30:52.659Z,47.31
2018-05-02T21:33:18.639Z,47.31
2018-05-02T21:35:44.682Z,47.27
2018-05-02T21:38:10.654Z,47.24
2018-05-02T21:40:36.661Z,47.24
2018-05-02T21:43:02.653Z,47.15
2018-05-02T21:45:28.608Z,47.10
2018-05-02T21:47:54.583Z,47.04
2018-05-02T21:50:20.601Z,46.98
2018-05-02T21:52:46.555Z,47.06
2018-05-02T21:55:12.542Z,46.96
2018-05-02T21:57:38.531Z,46.87
2018-05-02T22:00:04.517Z,46.93
2018-05-02T22:02:30.526Z,46.80
2018-05-02T22:04:56.505Z,46.87
2018-05-02T22:07:22.493Z,46.87
2018-05-02T22:09:48.468Z,46.63
2018-05-02T22:12:14.447Z,46.79
2018-05-02T22:14:40.426Z,46.69
2018-05-02T22:17:06.403Z,46.58
2018-05-02T22:19:32.383Z,46.70
2018-05-02T22:21:58.438Z,46.66
2018-05-02T22:24:24.380Z,46.63
2018-05-02T22:26:50.357Z,46.63
2018-05-02T22:29:16.343Z,46.47
2018-05-02T22:31:42.327Z,46.45
2018-05-02T22:34:08.362Z,46.57
2018-05-02T22:36:34.312Z,46.54
2018-05-02T22:39:00.297Z,46.52
2018-05-02T22:41:26.273Z,46.51
2018-05-02T22:43:52.283Z,46.51
2018-05-02T22:46:18.232Z,46.48
2018-05-02T22:48:44.256Z,46.46
2018-05-02T22:51:10.233Z,46.41
2018-05-02T22:53:36.194Z,46.44
2018-05-02T22:56:02.203Z,46.33
2018-05-02T22:58:28.210Z,46.32
2018-05-02T23:00:54.140Z,46.35
2018-05-02T23:03:20.124Z,46.38
2018-05-02T23:05:46.138Z,46.14
2018-05-02T23:08:12.116Z,46.37
2018-05-02T23:10:38.098Z,46.31
2018-05-02T23:13:04.091Z,46.30
2018-05-02T23:15:30.096Z,46.24
2018-05-02T23:17:56.084Z,46.28
2018-05-02T23:20:22.067Z,46.24
2018-05-02T23:22:48.080Z,46.23
2018-05-02T23:25:14.066Z,46.16
2018-05-02T23:27:40.082Z,46.22
2018-05-02T23:30:06.019Z,46.26
2018-05-02T23:32:32.022Z,46.23
2018-05-02T23:34:57.974Z,46.10
2018-05-02T23:37:23.987Z,46.14
2018-05-02T23:39:49.962Z,46.15
2018-05-02T23:42:15.983Z,46.11
2018-05-02T23:44:41.997Z,46.16
2018-05-02T23:47:08.002Z,46.16
2018-05-02T23:49:33.977Z,46.18
2018-05-02T23:51:59.958Z,46.11
2018-05-02T23:54:25.942Z,46.09
2018-05-02T23:56:51.972Z,46.08
2018-05-02T23:59:18.003Z,46.06
